Latest Weather Observations for Nullarbor

IDS60801

Issued at 8:21 pm CDT Sunday 29 March 2020 (issued every 10 minutes, with the page automatically refreshed every 10 minutes)

About weather observations | Map of weather stations | Latest weather observations for SA | Other Formats
Station Details ID: 018106 Name: NULLARBOR Lat: -31.45 Lon: 130.90 Height: 64.0 m
Data from the previous 72 hours. | See also: Recent months at Nullarbor
Date/Time
CDT
Temp
°C
App
Temp
°C
Dew
Point
°C
Rel
Hum
%
Delta-T
°C
Wind Press
QNH
hPa
Press
MSL
hPa
Rain since
9am
mm
Dir  Spd
km/h
Gust
km/h
Spd
kts
Gust
kts
29/08:00pm 18.2 16.5 14.7 80 2.0 S 17 20 9 11 1016.7 1016.5 0.0
29/07:30pm 19.0 17.2 15.9 82 1.8 SSW 20 28 11 15 1016.6 1016.4 0.0
29/07:00pm 19.8 17.4 16.3 80 2.1 SSW 24 30 13 16 1016.0 1015.8 0.0
29/06:30pm 20.0 17.6 15.4 75 2.7 SSW 22 30 12 16 1015.5 1015.3 0.0
29/06:00pm 20.8 17.8 14.9 69 3.5 SSW 24 33 13 18 1015.1 1014.9 0.0
29/05:30pm 21.1 18.1 14.7 67 3.8 SW 24 33 13 18 1015.3 1015.1 0.0
29/05:00pm 20.8 18.8 14.9 69 3.5 SSW 19 24 10 13 1014.8 1014.6 0.0
29/04:30pm 20.6 17.7 15.2 71 3.2 SW 24 32 13 17 1015.2 1015.0 0.0
29/04:00pm 21.0 18.7 15.8 72 3.1 SW 22 28 12 15 1015.2 1015.0 0.0
29/03:30pm 21.1 18.6 15.2 69 3.5 SW 22 30 12 16 1014.6 1014.4 0.0
29/03:00pm 21.2 19.0 14.8 67 3.8 SW 20 32 11 17 1014.8 1014.6 0.0
29/02:30pm 21.2 19.0 14.4 65 4.0 SW 19 26 10 14 1015.0 1014.8 0.0
29/02:00pm 21.7 20.0 14.6 64 4.2 SW 17 24 9 13 1015.0 1014.8 0.0
29/01:30pm 21.4 19.7 14.6 65 4.0 SW 17 28 9 15 1015.3 1015.1 0.0
29/01:00pm 21.3 19.6 14.7 66 3.9 SW 17 20 9 11 1015.4 1015.2 0.0
29/12:30pm 20.9 19.6 14.8 68 3.6 SW 15 20 8 11 1015.4 1015.2 0.0
29/12:00pm 20.8 19.9 15.8 73 3.0 SW 15 24 8 13 1015.5 1015.3 0.0
29/11:30am 20.5 20.1 16.3 77 2.5 SW 13 19 7 10 1015.5 1015.3 0.0
29/11:00am 20.1 20.0 16.9 82 1.9 SSW 13 20 7 11 1015.7 1015.5 0.0
29/10:30am 19.6 19.5 17.9 90 1.0 SW 15 19 8 10 1015.5 1015.3 0.0
29/10:00am 19.2 20.4 19.0 99 0.1 SW 11 15 6 8 1015.3 1015.1 0.0
29/09:30am 18.3 19.5 18.3 100 0.0 WSW 9 11 5 6 1015.0 1014.8 0.0
29/09:04am 17.6 19.1 17.6 100 0.0 WSW 6 7 3 4 1014.7 1014.5 0.0
29/09:00am 17.5 18.8 17.5 100 0.0 WSW 7 7 4 4 1014.8 1014.6 0.0
29/08:40am 17.4 18.6 17.4 100 0.0 WSW 7 9 4 5 1014.5 1014.3 0.0
29/08:30am 17.3 18.5 17.3 100 0.0 WSW 7 9 4 5 1014.4 1014.2 0.0
29/08:00am 17.4 18.2 17.4 100 0.0 WSW 9 11 5 6 1014.0 1013.8 0.0
29/07:30am 17.6 18.9 17.6 100 0.0 SW 7 9 4 5 1013.5 1013.3 0.0
29/07:23am 17.6 18.5 17.6 100 0.0 SW 9 11 5 6 1013.4 1013.2 0.0
29/07:05am 17.6 18.5 17.6 100 0.0 SW 9 11 5 6 1013.1 1012.9 0.0
29/07:00am 17.7 18.7 17.7 100 0.0 SW 9 11 5 6 1013.2 1013.0 0.0
29/06:35am 17.8 18.8 17.8 100 0.0 SW 9 11 5 6 1013.1 1012.9 0.0
29/06:30am 17.8 18.7 17.6 99 0.1 SW 9 13 5 7 1013.0 1012.8 0.0
29/06:00am 18.1 19.2 17.9 99 0.1 SW 9 13 5 7 1012.9 1012.7 0.0
29/05:30am 18.3 19.1 18.1 99 0.1 SSW 11 15 6 8 1012.7 1012.5 0.0
29/05:00am 18.6 18.6 18.1 97 0.3 SSW 15 17 8 9 1012.5 1012.3 0.0
29/04:30am 18.6 18.1 17.9 96 0.4 SSW 17 22 9 12 1012.3 1012.1 0.0
29/04:00am 18.8 19.0 18.6 99 0.1 SSW 15 19 8 10 1012.2 1012.0 0.0
29/03:30am 18.8 19.0 18.6 99 0.1 SSW 15 19 8 10 1012.2 1012.0 0.0
29/03:00am 18.9 19.5 18.7 99 0.1 SW 13 19 7 10 1012.6 1012.4 0.0
29/02:30am 18.9 19.3 18.9 100 0.0 SW 15 20 8 11 1012.0 1011.8 0.0
29/02:00am 18.9 19.6 18.9 100 0.0 SSW 13 17 7 9 1011.8 1011.6 0.0
29/01:30am 19.1 19.9 19.1 100 0.0 SW 13 15 7 8 1012.0 1011.8 0.0
29/01:00am 19.2 20.1 19.2 100 0.0 SSW 13 17 7 9 1011.9 1011.7 0.0
29/12:30am 19.3 19.5 19.3 100 0.0 SSW 17 20 9 11 1011.9 1011.7 0.0
29/12:00am 19.4 19.1 19.2 99 0.1 SSW 19 26 10 14 1011.5 1011.3 0.0
 
Date/Time
CDT
Temp
°C
App
Temp
°C
Dew
Point
°C
Rel
Hum
%
Delta-T
°C
Wind Press
QNH
hPa
Press
MSL
hPa
Rain since
9am
mm
Dir  Spd
km/h
Gust
km/h
Spd
kts
Gust
kts
28/11:30pm 19.5 19.7 19.3 99 0.1 S 17 24 9 13 1011.2 1011.0 0.0
28/11:00pm 19.7 19.3 19.0 96 0.4 S 19 28 10 15 1010.9 1010.7 0.0
28/10:30pm 19.9 18.8 18.7 93 0.8 S 22 30 12 16 1010.8 1010.6 0.0
28/10:00pm 20.1 18.6 18.6 91 0.9 S 24 33 13 18 1010.8 1010.6 0.0
28/09:30pm 20.4 18.9 18.5 89 1.2 SSW 24 32 13 17 1010.4 1010.2 0.0
28/09:00pm 20.7 18.3 18.3 86 1.5 SSW 28 35 15 19 1010.1 1009.9 0.0
28/08:30pm 21.3 18.7 17.7 80 2.2 SSW 28 35 15 19 1009.6 1009.4 0.0
28/08:00pm 22.0 18.3 17.4 75 2.8 SSW 33 43 18 23 1009.1 1008.8 0.0
28/07:30pm 23.2 18.7 16.5 66 4.1 SSW 35 46 19 25 1008.5 1008.2 0.0
28/07:00pm 25.7 20.6 14.8 51 6.6 SW 35 50 19 27 1007.9 1007.6 0.0
28/06:49pm 27.1 21.6 14.8 47 7.4 SW 37 46 20 25 1007.6 1007.3 0.0
28/06:30pm 32.3 27.1 11.5 28 12.2 SSW 30 44 16 24 1007.0 1006.7 0.0
28/06:00pm 32.5 27.2 11.1 27 12.5 SSW 30 39 16 21 1006.7 1006.5 0.0
28/05:30pm 33.9 28.0 11.1 25 13.4 SSW 33 46 18 25 1006.6 1006.4 0.0
28/05:00pm 38.7 33.5 7.4 15 17.7 NW 24 33 13 18 1006.3 1006.1 0.0
28/04:30pm 38.0 32.9 7.8 16 17.2 NW 24 35 13 19 1006.6 1006.4 0.0
28/04:00pm 37.9 32.6 8.6 17 16.8 NW 26 39 14 21 1007.0 1006.7 0.0
28/03:30pm 37.6 31.7 9.2 18 16.5 NNW 30 44 16 24 1007.3 1007.0 0.0
28/03:00pm 37.1 31.3 9.6 19 16.0 NNW 30 41 16 22 1007.6 1007.3 0.0
28/02:30pm 36.7 30.5 9.3 19 15.9 NNW 32 43 17 23 1008.2 1007.9 0.0
28/02:00pm 36.1 29.6 8.8 19 15.6 NNW 33 43 18 23 1008.6 1008.3 0.0
28/01:30pm 34.5 26.7 8.3 20 14.8 NNW 39 50 21 27 1009.3 1009.1 0.0
28/01:00pm 33.7 25.4 7.6 20 14.5 N 41 52 22 28 1009.8 1009.6 0.0
28/12:30pm 32.3 24.2 7.2 21 13.8 N 39 50 21 27 1010.6 1010.4 0.0
28/12:12pm 32.5 24.9 7.4 21 13.8 N 37 56 20 30 1010.8 1010.6 0.0
28/12:00pm 32.0 23.9 7.0 21 13.6 N 39 54 21 29 1011.1 1010.9 0.0
28/11:30am 30.1 22.2 7.9 25 12.2 N 39 50 21 27 1011.5 1011.3 0.0
28/11:00am 28.9 21.0 8.0 27 11.4 N 39 48 21 26 1012.0 1011.8 0.0
28/10:30am 27.3 20.6 8.2 30 10.4 N 33 43 18 23 1012.4 1012.2 0.0
28/10:00am 25.3 19.8 9.2 36 8.8 NNE 28 37 15 20 1012.5 1012.3 0.0
28/09:30am 23.0 18.7 10.8 46 6.8 NNE 24 32 13 17 1012.7 1012.5 0.0
28/09:00am 20.9 17.5 11.3 54 5.3 NNE 20 28 11 15 1012.9 1012.7 0.0
28/08:30am 18.3 14.9 11.4 64 3.8 NNE 20 24 11 13 1012.8 1012.6 0.0
28/08:00am 16.9 13.5 11.4 70 3.0 NNE 20 24 11 13 1012.7 1012.5 0.0
28/07:30am 16.4 13.2 12.0 75 2.4 NNE 20 22 11 12 1012.8 1012.6 0.0
28/07:00am 16.0 13.1 12.2 78 2.1 NNE 19 20 10 11 1012.7 1012.5 0.0
28/06:30am 16.3 13.8 12.3 77 2.2 NNE 17 20 9 11 1012.7 1012.5 0.0
28/06:00am 16.6 14.1 12.2 75 2.4 NNE 17 20 9 11 1012.8 1012.6 0.0
28/05:30am 16.9 14.0 12.4 75 2.5 NNE 19 22 10 12 1012.8 1012.6 0.0
28/05:00am 16.9 14.5 12.6 76 2.4 NNE 17 19 9 10 1012.8 1012.6 0.0
28/04:30am 16.7 14.3 12.7 77 2.2 NNE 17 20 9 11 1012.9 1012.7 0.0
28/04:00am 15.9 13.8 12.5 80 1.9 NE 15 17 8 9 1013.1 1012.9 0.0
28/03:30am 15.8 13.7 12.4 80 1.9 ENE 15 17 8 9 1013.3 1013.1 0.0
28/03:00am 16.1 13.7 12.7 80 1.9 ENE 17 17 9 9 1013.5 1013.3 0.0
28/02:30am 16.0 14.1 13.1 83 1.6 E 15 17 8 9 1013.6 1013.4 0.0
28/02:00am 16.2 14.7 13.1 82 1.7 E 13 15 7 8 1013.8 1013.6 0.0
28/01:30am 16.8 15.4 13.3 80 2.0 E 13 15 7 8 1014.2 1014.0 0.0
28/01:00am 17.8 16.1 13.5 76 2.4 E 15 19 8 10 1014.5 1014.3 0.0
28/12:30am 18.5 16.6 14.2 76 2.5 ESE 17 19 9 10 1014.9 1014.7 0.0
28/12:00am 18.5 16.7 15.4 82 1.8 E 19 20 10 11 1015.1 1014.9 0.0
 
Date/Time
CDT
Temp
°C
App
Temp
°C
Dew
Point
°C
Rel
Hum
%
Delta-T
°C
Wind Press
QNH
hPa
Press
MSL
hPa
Rain since
9am
mm
Dir  Spd
km/h
Gust
km/h
Spd
kts
Gust
kts
27/11:30pm 18.5 16.9 16.1 86 1.4 ESE 19 24 10 13 1015.4 1015.2 0.0
27/11:00pm 18.4 16.9 16.7 90 1.0 ESE 20 24 11 13 1015.7 1015.5 0.0
27/10:30pm 18.4 17.3 17.8 96 0.4 ESE 20 24 11 13 1016.1 1015.9 0.0
27/10:00pm 18.4 17.6 18.1 98 0.2 ESE 19 24 10 13 1016.1 1015.9 0.0
27/09:30pm 18.5 17.6 18.2 98 0.2 ESE 20 24 11 13 1016.0 1015.8 0.0
27/09:00pm 18.6 17.8 17.9 96 0.4 SE 19 22 10 12 1016.0 1015.8 0.0
27/08:30pm 19.0 18.0 17.5 91 0.9 SE 19 24 10 13 1015.8 1015.6 0.0
27/08:00pm 19.5 17.5 16.5 83 1.8 SE 22 26 12 14 1015.7 1015.5 0.0
27/07:30pm 20.8 18.5 15.8 73 3.0 SE 22 28 12 15 1015.4 1015.2 0.0
27/07:00pm 21.9 18.8 15.5 67 3.8 SE 26 32 14 17 1015.5 1015.3 0.0
27/06:30pm 23.4 20.3 15.7 62 4.6 SE 26 32 14 17 1015.1 1014.9 0.0
27/06:00pm 24.3 21.0 15.0 56 5.6 SE 26 30 14 16 1015.2 1015.0 0.0
27/05:30pm 25.2 22.3 15.2 54 6.0 SE 24 30 13 16 1015.2 1015.0 0.0
27/05:00pm 25.5 22.5 14.9 52 6.4 SE 24 30 13 16 1015.4 1015.2 0.0
27/04:30pm 26.9 24.4 16.2 52 6.6 SE 24 30 13 16 1015.8 1015.6 0.0
27/04:00pm 27.4 25.1 16.7 52 6.7 SE 24 28 13 15 1016.1 1015.9 0.0
27/03:30pm 27.8 26.3 17.6 53 6.4 SE 22 30 12 16 1016.4 1016.2 0.0
27/03:00pm 27.9 27.0 17.7 53 6.5 SSE 19 26 10 14 1016.7 1016.5 0.0
27/02:30pm 28.7 29.0 15.9 45 7.9 ESE 9 19 5 10 1017.3 1017.1 0.0
27/02:00pm 27.7 28.7 16.9 51 6.8 E 7 15 4 8 1017.8 1017.6 0.0
27/01:30pm 25.8 26.6 17.2 59 5.4 ESE 9 17 5 9 1018.3 1018.1 0.0
27/01:00pm 24.9 25.5 16.9 61 5.0 ENE 9 17 5 9 1018.8 1018.6 0.0
27/12:30pm 23.8 23.8 17.3 67 4.0 ESE 13 20 7 11 1019.3 1019.1 0.0
27/12:00pm 23.1 22.4 18.2 74 3.1 ESE 19 24 10 13 1019.5 1019.3 0.0
27/11:30am 21.8 20.9 17.8 78 2.5 ESE 19 26 10 14 1019.9 1019.7 0.0
27/11:00am 20.9 20.0 17.7 82 2.0 ESE 19 24 10 13 1020.2 1020.0 0.0
27/10:30am 20.4 20.1 18.2 87 1.4 ESE 17 22 9 12 1020.4 1020.2 0.0
27/10:00am 19.4 18.5 19.1 98 0.2 ESE 22 28 12 15 1020.5 1020.3 0.0
27/09:30am 18.3 17.4 18.3 100 0.0 SE 20 24 11 13 1020.5 1020.3 0.0
27/09:00am 16.6 - - - - SE 13 17 7 9 1020.6 1020.4 0.0
27/08:30am 14.8 - - - - SSE 13 13 7 7 1020.6 1020.4 0.0
27/08:00am 14.3 - - - - SSE 11 13 6 7 1020.2 1020.0 0.0
27/07:30am 14.6 - - - - SSE 15 17 8 9 1020.2 1020.0 0.0
27/07:00am 14.4 - - - - S 13 15 7 8 1020.2 1020.0 0.0
27/06:30am 14.4 14.1 14.4 100 0.0 SE 9 11 5 6 1019.9 1019.7 0.0
27/06:00am 14.8 14.3 14.8 100 0.0 ESE 11 13 6 7 1019.7 1019.5 0.0
27/05:30am 15.2 14.4 15.2 100 0.0 SE 13 15 7 8 1019.7 1019.5 0.0
27/05:00am 15.4 14.7 15.4 100 0.0 SSE 13 15 7 8 1019.8 1019.6 0.0
27/04:30am 15.7 15.1 15.7 100 0.0 SE 13 15 7 8 1019.8 1019.6 0.0
27/04:00am 15.9 15.0 15.9 100 0.0 SE 15 19 8 10 1019.9 1019.7 0.0
27/03:30am 15.9 15.0 15.9 100 0.0 SE 15 20 8 11 1020.2 1020.0 0.0
27/03:00am 15.8 14.9 15.8 100 0.0 SE 15 20 8 11 1020.3 1020.1 0.0
27/02:30am 15.7 14.7 15.7 100 0.0 SE 15 17 8 9 1020.2 1020.0 0.0
27/02:00am 15.8 14.9 15.8 100 0.0 SE 15 17 8 9 1020.3 1020.1 0.0
27/01:30am 15.9 15.0 15.9 100 0.0 SE 15 19 8 10 1020.3 1020.1 0.0
27/01:00am 16.0 14.8 16.0 100 0.0 SE 17 20 9 11 1020.4 1020.2 0.0
27/12:30am 16.2 14.5 16.2 100 0.0 SE 20 28 11 15 1020.5 1020.3 0.0
27/12:00am 16.4 14.9 16.4 100 0.0 SE 19 24 10 13 1020.9 1020.7 0.0
 
Date/Time
CDT
Temp
°C
App
Temp
°C
Dew
Point
°C
Rel
Hum
%
Delta-T
°C
Wind Press
QNH
hPa
Press
MSL
hPa
Rain since
9am
mm
Dir  Spd
km/h
Gust
km/h
Spd
kts
Gust
kts
26/11:30pm 16.7 15.2 16.7 100 0.0 ESE 20 24 11 13 1020.9 1020.7 0.0
26/11:00pm 16.7 14.8 16.7 100 0.0 ESE 22 28 12 15 1021.0 1020.8 0.0
26/10:30pm 16.6 15.0 16.6 100 0.0 SE 20 28 11 15 1021.0 1020.8 0.0
26/10:00pm 16.8 14.5 16.6 99 0.1 ESE 24 32 13 17 1020.9 1020.7 0.0
26/09:30pm 16.9 14.6 16.7 99 0.1 SE 24 35 13 19 1020.7 1020.5 0.0
26/09:00pm 17.1 14.5 16.9 99 0.1 SE 26 32 14 17 1020.4 1020.2 0.0
26/08:30pm 17.3 14.8 17.0 98 0.2 SE 26 33 14 18 1020.3 1020.1 0.0

Other formats

Comma delimited format used in spreadsheet applications
http://www.bom.gov.au/fwo/IDS60801/IDS60801.94651.axf

JavaScript Object Notation format (JSON) in row-major order
http://www.bom.gov.au/fwo/IDS60801/IDS60801.94651.json

Data quality

Most of these data are generated automatically and are frequently updated. Quality checks on data are not normally performed. It is possible for incorrect values to appear. Refer to information at About Latest Weather Observations and please check the disclaimer before using these data.